Time;durP1;ratioP1;P1;durP2;ratioP2;P2;SDS_P1;SDS_P2;PMS_P1;PMS_P2;Temp;Humidity;BMP_temperature;BMP_pressure;BME280_temperature;BME280_humidity;BME280_pressure;Samples;Min_cycle;Max_cycle;Signal;HPM_P1;HPM_P2
2022/09/07 00:01:37;;;;;;;1.30;1.10;;;23.30;41.80;;;;;;5065085;28;20214;-68
2022/09/07 00:04:03;;;;;;;1.30;1.10;;;23.20;41.90;;;;;;5069796;28;20179;-68
2022/09/07 00:06:29;;;;;;;1.30;1.20;;;23.20;40.60;;;;;;5071164;28;20186;-68
2022/09/07 00:08:55;;;;;;;1.33;1.20;;;23.10;42.10;;;;;;5073004;28;20170;-68
2022/09/07 00:11:21;;;;;;;1.40;1.20;;;23.00;41.40;;;;;;5069896;28;20470;-70
2022/09/07 00:13:48;;;;;;;1.33;1.20;;;22.90;42.80;;;;;;5070971;28;20721;-69
2022/09/07 00:16:17;;;;;;;1.30;1.20;;;23.10;41.80;;;;;;5069957;28;20439;-68
2022/09/07 00:18:43;;;;;;;1.30;1.10;;;23.00;41.90;;;;;;5059424;28;20441;-68
2022/09/07 00:21:10;;;;;;;1.30;1.10;;;23.00;41.80;;;;;;5067018;28;20473;-68
2022/09/07 00:23:38;;;;;;;1.40;1.30;;;22.90;42.10;;;;;;5070346;28;20522;-69
2022/09/07 00:26:12;;;;;;;1.30;1.20;;;22.60;40.70;;;;;;5070611;28;20497;-68
2022/09/07 00:28:38;;;;;;;1.30;1.20;;;22.20;42.20;;;;;;5070860;28;20431;-68
2022/09/07 00:31:09;;;;;;;1.40;1.30;;;22.50;42.90;;;;;;5066560;28;20480;-68
2022/09/07 00:33:35;;;;;;;1.30;1.20;;;22.70;42.40;;;;;;5070419;28;20432;-68
2022/09/07 00:36:01;;;;;;;1.30;1.20;;;22.80;42.70;;;;;;5068766;28;20433;-68
2022/09/07 00:38:26;;;;;;;1.30;1.20;;;22.90;44.30;;;;;;5070552;28;20197;-68
2022/09/07 00:40:52;;;;;;;1.30;1.20;;;22.60;41.30;;;;;;5068810;28;20241;-68
2022/09/07 00:43:33;;;;;;;1.40;1.20;;;22.00;43.50;;;;;;5070371;28;20222;-68
2022/09/07 00:46:00;;;;;;;1.30;1.23;;;21.60;46.70;;;;;;5070704;28;20427;-69
2022/09/07 00:48:41;;;;;;;1.30;1.17;;;21.70;47.40;;;;;;5067677;28;20496;-68
2022/09/07 00:51:11;;;;;;;1.53;1.40;;;22.20;46.10;;;;;;5058773;28;20455;-68
2022/09/07 00:53:47;;;;;;;1.30;1.20;;;22.50;44.80;;;;;;5061503;28;20876;-68
2022/09/07 00:56:13;;;;;;;1.30;1.17;;;22.70;45.10;;;;;;5063210;28;20930;-68
2022/09/07 00:58:41;;;;;;;1.30;1.20;;;22.90;44.30;;;;;;5070644;28;20524;-68
2022/09/07 01:01:08;;;;;;;1.30;1.20;;;22.80;44.30;;;;;;5059236;28;20849;-69
2022/09/07 01:03:39;;;;;;;1.30;1.17;;;22.90;44.30;;;;;;5069644;28;20957;-68
2022/09/07 01:06:13;;;;;;;1.30;1.10;;;22.90;43.50;;;;;;5070893;28;20920;-68
2022/09/07 01:08:40;;;;;;;1.40;1.30;;;22.80;44.80;;;;;;5064547;28;20467;-69
2022/09/07 01:11:07;;;;;;;1.30;1.20;;;22.70;44.20;;;;;;5066744;28;20463;-68
2022/09/07 01:13:33;;;;;;;1.37;1.23;;;22.70;43.40;;;;;;5070309;28;20431;-69
2022/09/07 01:16:10;;;;;;;1.30;1.20;;;22.80;42.70;;;;;;5066045;28;20943;-68
2022/09/07 01:19:18;;;;;;;1.30;1.10;;;22.90;41.40;;;;;;5066645;28;20826;-68
2022/09/07 01:22:05;;;;;;;1.40;1.30;;;22.90;40.00;;;;;;5046446;28;21019;-68
2022/09/07 01:24:40;;;;;;;1.30;1.23;;;23.20;39.30;;;;;;5058366;28;20455;-69
2022/09/07 01:27:18;;;;;;;1.30;1.20;;;23.20;39.10;;;;;;5065613;28;20526;-68
2022/09/07 01:30:00;;;;;;;1.30;1.20;;;23.30;40.50;;;;;;5066590;28;20432;-68
2022/09/07 01:33:11;;;;;;;1.30;1.20;;;23.30;39.90;;;;;;5062190;28;20468;-68
2022/09/07 01:35:50;;;;;;;1.30;1.20;;;23.30;41.30;;;;;;5041909;28;20451;-68
2022/09/07 01:38:25;;;;;;;1.30;1.10;;;23.20;41.40;;;;;;5066743;28;20420;-68
2022/09/07 01:41:08;;;;;;;1.30;1.20;;;23.30;41.30;;;;;;5065566;28;20887;-68
2022/09/07 01:43:51;;;;;;;1.30;1.20;;;23.30;41.30;;;;;;5064988;28;20810;-68
2022/09/07 01:46:27;;;;;;;1.30;1.20;;;23.30;40.60;;;;;;5064302;28;20437;-68
2022/09/07 01:48:59;;;;;;;1.30;1.20;;;23.30;41.00;;;;;;5065244;28;20459;-68
2022/09/07 01:51:31;;;;;;;1.30;1.13;;;23.30;40.80;;;;;;5066900;28;20849;-67
2022/09/07 01:54:07;;;;;;;1.30;1.30;;;23.30;41.10;;;;;;5069007;28;20511;-68
2022/09/07 01:56:42;;;;;;;1.70;1.50;;;23.40;41.00;;;;;;5070349;28;20442;-68
2022/09/07 01:59:44;;;;;;;1.30;1.20;;;23.40;41.40;;;;;;5069490;28;20423;-68
2022/09/07 02:02:33;;;;;;;1.30;1.20;;;23.40;41.40;;;;;;5065728;28;20558;-68
2022/09/07 02:05:08;;;;;;;1.30;1.10;;;23.20;40.40;;;;;;5066148;28;20973;-68
2022/09/07 02:08:10;;;;;;;1.30;1.10;;;22.60;41.30;;;;;;5067170;28;20433;-68
2022/09/07 02:10:44;;;;;;;1.30;1.20;;;22.50;42.20;;;;;;5055188;28;20448;-69
2022/09/07 02:13:22;;;;;;;1.30;1.30;;;22.60;43.00;;;;;;5066366;28;20436;-68
2022/09/07 02:16:09;;;;;;;1.30;1.30;;;22.80;42.30;;;;;;5062760;28;20460;-69
2022/09/07 02:18:49;;;;;;;1.30;1.17;;;22.70;42.10;;;;;;5055076;28;20438;-68
2022/09/07 02:21:19;;;;;;;1.30;1.20;;;22.70;42.80;;;;;;5064912;28;20499;-68
2022/09/07 02:24:00;;;;;;;1.30;1.10;;;22.90;42.20;;;;;;5062786;28;20435;-69
2022/09/07 02:26:28;;;;;;;1.30;1.20;;;23.10;42.00;;;;;;5060183;28;20433;-68
2022/09/07 02:28:55;;;;;;;1.30;1.10;;;22.90;41.70;;;;;;5066581;28;20428;-68
2022/09/07 02:31:22;;;;;;;1.30;1.13;;;23.00;42.00;;;;;;5061388;28;20539;-69
2022/09/07 02:33:49;;;;;;;1.30;1.20;;;23.10;41.40;;;;;;5063396;28;20445;-68
2022/09/07 02:36:23;;;;;;;1.30;1.10;;;22.90;41.90;;;;;;5058136;28;20527;-68
2022/09/07 02:38:52;;;;;;;1.30;1.10;;;23.20;42.60;;;;;;5063082;28;20428;-68
2022/09/07 02:41:41;;;;;;;1.30;1.10;;;23.10;43.40;;;;;;5065829;28;20549;-68
2022/09/07 02:44:16;;;;;;;1.30;1.10;;;23.10;43.30;;;;;;5069978;28;20420;-68
2022/09/07 02:46:58;;;;;;;1.30;1.20;;;23.30;40.50;;;;;;5068850;28;20433;-68
2022/09/07 02:49:42;;;;;;;1.30;1.20;;;23.30;42.20;;;;;;5067939;28;20437;-68
2022/09/07 02:53:04;;;;;;;1.30;1.10;;;23.30;42.60;;;;;;5063963;28;20506;-68
2022/09/07 02:55:36;;;;;;;1.30;1.20;;;23.30;42.70;;;;;;5015525;28;20977;-69
2022/09/07 02:58:40;;;;;;;1.30;1.20;;;23.30;43.50;;;;;;5012285;28;20519;-68
2022/09/07 03:01:19;;;;;;;1.30;1.20;;;23.20;43.60;;;;;;5009079;28;20998;-68
2022/09/07 03:04:19;;;;;;;1.30;1.20;;;23.10;44.30;;;;;;5015383;28;20454;-68
2022/09/07 03:07:20;;;;;;;1.30;1.13;;;23.20;43.30;;;;;;4955083;28;20452;-68
2022/09/07 03:09:50;;;;;;;1.30;1.10;;;23.10;43.30;;;;;;4865408;29;20840;-68
2022/09/07 03:12:16;;;;;;;1.30;1.27;;;22.90;43.10;;;;;;4861833;29;20477;-69
2022/09/07 03:14:43;;;;;;;1.30;1.23;;;22.50;44.00;;;;;;4861763;29;20457;-68
2022/09/07 03:17:10;;;;;;;1.30;1.20;;;22.70;44.20;;;;;;4866463;29;20542;-68
2022/09/07 03:19:37;;;;;;;1.30;1.20;;;22.80;44.70;;;;;;4865642;29;20876;-68
2022/09/07 03:22:05;;;;;;;1.30;1.10;;;22.90;44.70;;;;;;4867434;29;20572;-68
2022/09/07 03:24:31;;;;;;;1.30;1.27;;;23.00;44.40;;;;;;4864103;29;20447;-68
2022/09/07 03:26:58;;;;;;;1.30;1.10;;;23.00;44.40;;;;;;4862721;29;20443;-68
2022/09/07 03:29:27;;;;;;;1.30;1.20;;;22.70;43.50;;;;;;4870578;29;20792;-68
2022/09/07 03:31:54;;;;;;;1.30;1.10;;;22.80;43.70;;;;;;4902788;29;20561;-68
2022/09/07 03:34:20;;;;;;;1.30;1.20;;;22.80;43.50;;;;;;4943056;29;20450;-68
2022/09/07 03:36:47;;;;;;;1.30;1.20;;;22.70;44.20;;;;;;4944004;29;20454;-68
2022/09/07 03:39:13;;;;;;;1.30;1.20;;;22.20;43.80;;;;;;4940542;29;20570;-68
2022/09/07 03:41:40;;;;;;;1.30;1.23;;;21.90;45.30;;;;;;4939523;29;20944;-68
2022/09/07 03:44:07;;;;;;;1.30;1.30;;;22.00;45.70;;;;;;4972017;28;20448;-68
2022/09/07 03:46:34;;;;;;;1.30;1.20;;;22.20;46.30;;;;;;5043733;28;20488;-68
2022/09/07 03:49:00;;;;;;;1.30;1.10;;;22.50;45.40;;;;;;5070861;28;20514;-68
2022/09/07 03:51:27;;;;;;;1.30;1.20;;;22.70;45.50;;;;;;5070483;28;20471;-68
2022/09/07 03:53:54;;;;;;;1.30;1.17;;;22.70;44.20;;;;;;5071079;28;20431;-68
2022/09/07 03:56:23;;;;;;;1.30;1.20;;;22.60;44.70;;;;;;5071793;28;20440;-68
2022/09/07 03:58:52;;;;;;;1.30;1.27;;;22.60;44.20;;;;;;5072294;28;20487;-68
2022/09/07 04:01:22;;;;;;;1.30;1.20;;;22.50;44.90;;;;;;5069807;28;20585;-68
2022/09/07 04:03:49;;;;;;;1.30;1.17;;;22.40;44.90;;;;;;5066989;28;20524;-68
2022/09/07 04:06:16;;;;;;;1.40;1.30;;;22.50;44.50;;;;;;5060296;28;20431;-68
2022/09/07 04:08:43;;;;;;;1.40;1.30;;;22.50;44.80;;;;;;5066854;28;20429;-68
2022/09/07 04:11:13;;;;;;;1.30;1.10;;;22.40;45.60;;;;;;5064918;28;20453;-68
2022/09/07 04:13:43;;;;;;;1.30;1.20;;;22.40;45.40;;;;;;5064724;28;20454;-68
2022/09/07 04:16:15;;;;;;;1.30;1.10;;;22.40;45.80;;;;;;5070323;28;20435;-68
2022/09/07 04:18:42;;;;;;;1.30;1.13;;;22.30;47.00;;;;;;5068401;28;21096;-67
2022/09/07 04:21:08;;;;;;;1.30;1.10;;;22.20;46.50;;;;;;5062821;28;20472;-68
2022/09/07 04:23:38;;;;;;;1.30;1.17;;;22.20;46.80;;;;;;5061595;28;20440;-68
2022/09/07 04:26:04;;;;;;;1.30;1.20;;;22.20;46.70;;;;;;5067837;28;20512;-69
2022/09/07 04:28:32;;;;;;;1.30;1.10;;;22.20;47.00;;;;;;5060280;28;20440;-68
2022/09/07 04:31:00;;;;;;;1.40;1.30;;;22.20;46.50;;;;;;5062274;28;20455;-68
2022/09/07 04:33:33;;;;;;;1.30;1.20;;;22.20;46.20;;;;;;5068228;28;20431;-68
2022/09/07 04:36:08;;;;;;;1.30;1.10;;;22.10;47.00;;;;;;5066500;28;20800;-68
2022/09/07 04:38:38;;;;;;;1.30;1.17;;;22.10;47.40;;;;;;5063724;28;20429;-68
2022/09/07 04:41:18;;;;;;;1.37;1.20;;;22.30;45.60;;;;;;5064578;28;20890;-68
2022/09/07 04:43:45;;;;;;;1.30;1.20;;;22.50;46.00;;;;;;5065409;28;20433;-68
2022/09/07 04:46:20;;;;;;;1.30;1.10;;;22.50;45.70;;;;;;5069973;28;20799;-68
2022/09/07 04:49:01;;;;;;;1.30;1.20;;;22.50;46.50;;;;;;5068180;28;21140;-68
2022/09/07 04:51:34;;;;;;;1.30;1.20;;;22.50;47.10;;;;;;5064448;28;20467;-68
2022/09/07 04:54:01;;;;;;;1.30;1.20;;;22.50;46.90;;;;;;5065874;28;20435;-68
2022/09/07 04:56:27;;;;;;;1.40;1.30;;;22.60;46.40;;;;;;5066817;28;20523;-69
2022/09/07 04:58:53;;;;;;;1.30;1.20;;;22.50;46.90;;;;;;5067888;28;20463;-68
2022/09/07 05:01:21;;;;;;;1.30;1.10;;;22.70;47.90;;;;;;5061087;28;20466;-68
2022/09/07 05:03:47;;;;;;;1.30;1.20;;;22.80;47.10;;;;;;5064199;28;20955;-68
2022/09/07 05:06:14;;;;;;;1.30;1.20;;;22.80;45.90;;;;;;5061872;28;20950;-68
2022/09/07 05:08:46;;;;;;;1.30;1.10;;;22.90;45.90;;;;;;5071489;28;20425;-68
2022/09/07 05:11:13;;;;;;;1.30;1.27;;;22.80;45.90;;;;;;5062870;28;20452;-68
2022/09/07 05:13:39;;;;;;;1.30;1.30;;;22.90;46.00;;;;;;5067378;28;20446;-69
2022/09/07 05:16:23;;;;;;;1.30;1.13;;;22.90;45.60;;;;;;5065945;28;20431;-68
2022/09/07 05:18:51;;;;;;;1.30;1.10;;;22.80;46.70;;;;;;5067749;28;20438;-68
2022/09/07 05:21:19;;;;;;;1.30;1.20;;;22.80;47.40;;;;;;5067659;28;20558;-68
2022/09/07 05:23:49;;;;;;;1.30;1.20;;;22.90;46.60;;;;;;5067623;28;20438;-68
2022/09/07 05:26:16;;;;;;;1.30;1.10;;;23.00;45.60;;;;;;5067746;28;20447;-68
2022/09/07 05:28:41;;;;;;;1.30;1.17;;;23.10;46.50;;;;;;5068409;28;20432;-68
2022/09/07 05:31:13;;;;;;;1.30;1.10;;;23.20;46.20;;;;;;5067156;28;20494;-68
2022/09/07 05:33:39;;;;;;;1.30;1.20;;;23.10;44.10;;;;;;5066997;28;20552;-68
2022/09/07 05:36:05;;;;;;;2.33;1.60;;;23.00;44.40;;;;;;5067161;28;20480;-68
2022/09/07 05:38:35;;;;;;;1.30;1.23;;;23.00;46.30;;;;;;5068514;28;20217;-68
2022/09/07 05:41:12;;;;;;;1.30;1.20;;;23.00;45.10;;;;;;5066254;28;20987;-68
2022/09/07 05:43:38;;;;;;;1.30;1.10;;;23.10;46.20;;;;;;5069207;28;20411;-68
2022/09/07 05:46:04;;;;;;;1.30;1.20;;;23.20;44.00;;;;;;5066354;28;20481;-68
2022/09/07 05:48:30;;;;;;;1.30;1.30;;;23.00;44.40;;;;;;5068660;28;20223;-68
2022/09/07 05:50:56;;;;;;;1.30;1.20;;;22.90;45.30;;;;;;5067937;28;20770;-68
2022/09/07 05:53:22;;;;;;;1.30;1.20;;;23.10;47.20;;;;;;5068755;28;20832;-68
2022/09/07 05:55:50;;;;;;;1.30;1.10;;;23.50;46.00;;;;;;5063235;28;20441;-68
2022/09/07 05:58:17;;;;;;;1.30;1.30;;;23.60;45.70;;;;;;5069935;28;20180;-68
2022/09/07 06:00:44;;;;;;;1.30;1.23;;;23.60;47.00;;;;;;5061628;28;20461;-68
2022/09/07 06:03:10;;;;;;;1.30;1.20;;;23.60;45.00;;;;;;5059366;28;20994;-69
2022/09/07 06:05:36;;;;;;;1.30;1.10;;;23.60;45.00;;;;;;5065670;28;20468;-68
2022/09/07 06:08:02;;;;;;;1.30;1.20;;;23.70;47.00;;;;;;5058921;28;21065;-68
2022/09/07 06:10:32;;;;;;;1.30;1.20;;;23.30;44.70;;;;;;5069482;28;20443;-69
2022/09/07 06:12:58;;;;;;;1.30;1.13;;;23.30;44.20;;;;;;5058482;28;20989;-68
2022/09/07 06:15:23;;;;;;;1.30;1.20;;;22.90;45.80;;;;;;5058950;28;20561;-68
2022/09/07 06:17:49;;;;;;;1.30;1.20;;;22.80;46.30;;;;;;5068691;28;20186;-68
2022/09/07 06:20:15;;;;;;;1.30;1.20;;;22.60;46.60;;;;;;5062682;28;20173;-68
2022/09/07 06:22:40;;;;;;;1.97;1.30;;;22.70;45.80;;;;;;5065925;28;20992;-68
2022/09/07 06:25:06;;;;;;;1.30;1.20;;;22.80;46.80;;;;;;5061816;28;20190;-69
2022/09/07 06:27:32;;;;;;;1.30;1.17;;;23.10;45.80;;;;;;5068743;28;20178;-68
2022/09/07 06:29:58;;;;;;;1.30;1.20;;;22.90;44.80;;;;;;5063656;28;20421;-68
2022/09/07 06:32:23;;;;;;;1.30;1.10;;;22.80;46.50;;;;;;5062472;28;20266;-68
2022/09/07 06:34:49;;;;;;;1.30;1.30;;;23.00;45.90;;;;;;5065741;28;20541;-68
2022/09/07 06:37:15;;;;;;;1.30;1.10;;;23.00;44.90;;;;;;5069247;28;20179;-68
2022/09/07 06:39:41;;;;;;;1.30;1.20;;;23.00;45.80;;;;;;5056524;28;20735;-69
2022/09/07 06:42:06;;;;;;;1.70;1.50;;;22.90;45.50;;;;;;5061482;28;20562;-68
2022/09/07 06:44:32;;;;;;;1.30;1.20;;;23.10;44.60;;;;;;5063031;28;20201;-68
2022/09/07 06:46:58;;;;;;;1.30;1.10;;;23.30;44.70;;;;;;5064036;28;20559;-68
2022/09/07 06:49:24;;;;;;;1.30;1.20;;;23.50;45.60;;;;;;5063195;28;20183;-68
2022/09/07 06:51:50;;;;;;;1.30;1.10;;;23.60;46.10;;;;;;5064933;28;20224;-68
2022/09/07 06:54:16;;;;;;;1.30;1.20;;;23.60;47.20;;;;;;5068336;28;20447;-68
2022/09/07 06:56:42;;;;;;;1.30;1.20;;;23.60;46.90;;;;;;5068233;28;20179;-68
2022/09/07 06:59:08;;;;;;;1.30;1.10;;;24.00;42.40;;;;;;5070527;28;20429;-67
2022/09/07 07:01:34;;;;;;;1.30;1.20;;;24.00;43.10;;;;;;5067093;28;20824;-68
2022/09/07 07:04:00;;;;;;;1.30;1.10;;;24.00;42.40;;;;;;5068400;28;20191;-69
2022/09/07 07:06:36;;;;;;;1.30;1.10;;;24.10;42.90;;;;;;5066920;28;20265;-68
2022/09/07 07:09:03;;;;;;;1.30;1.10;;;24.20;43.60;;;;;;5061881;28;20425;-68
2022/09/07 07:11:29;;;;;;;1.30;1.23;;;24.20;42.80;;;;;;5066384;28;20457;-68
2022/09/07 07:13:56;;;;;;;1.30;1.27;;;24.20;43.40;;;;;;5061116;28;20474;-68
2022/09/07 07:16:23;;;;;;;1.30;1.20;;;24.50;41.30;;;;;;5066028;28;20427;-68
2022/09/07 07:18:51;;;;;;;1.30;1.20;;;24.50;40.70;;;;;;5062998;28;20446;-68
2022/09/07 07:21:17;;;;;;;1.30;1.17;;;24.60;41.20;;;;;;5063925;28;20530;-68
2022/09/07 07:23:43;;;;;;;1.30;1.20;;;24.50;40.60;;;;;;5062716;28;20440;-68
2022/09/07 07:26:14;;;;;;;1.30;1.10;;;24.30;41.20;;;;;;5067423;28;20415;-68
2022/09/07 07:28:44;;;;;;;1.30;1.27;;;24.00;41.80;;;;;;5064628;28;20481;-68
2022/09/07 07:31:10;;;;;;;1.30;1.20;;;24.20;42.10;;;;;;5065940;28;20871;-68
2022/09/07 07:33:37;;;;;;;1.30;1.30;;;24.20;41.30;;;;;;5061927;28;20431;-67
2022/09/07 07:36:10;;;;;;;1.30;1.20;;;24.10;42.30;;;;;;5070666;28;20193;-68
2022/09/07 07:38:36;;;;;;;1.30;1.17;;;24.30;42.00;;;;;;5069875;28;20530;-68
2022/09/07 07:41:01;;;;;;;1.30;1.20;;;24.60;41.20;;;;;;5070540;28;20472;-68
2022/09/07 07:43:27;;;;;;;1.30;1.20;;;24.70;40.60;;;;;;5072134;28;20740;-68
2022/09/07 07:45:54;;;;;;;1.30;1.10;;;24.50;41.30;;;;;;5068943;28;20182;-69
2022/09/07 07:48:20;;;;;;;1.30;1.20;;;24.80;41.20;;;;;;5071932;28;20202;-68
2022/09/07 07:50:56;;;;;;;1.30;1.30;;;25.10;40.30;;;;;;5069514;28;20944;-68
2022/09/07 07:53:22;;;;;;;1.30;1.20;;;25.30;39.70;;;;;;5070024;28;20212;-68
2022/09/07 07:55:47;;;;;;;1.30;1.20;;;25.30;40.20;;;;;;5071855;28;20424;-70
2022/09/07 07:58:13;;;;;;;1.30;1.10;;;25.80;39.90;;;;;;5070627;28;20319;-69
2022/09/07 08:00:39;;;;;;;1.30;1.20;;;26.10;38.70;;;;;;5071314;28;20568;-68
2022/09/07 08:03:05;;;;;;;1.30;1.20;;;25.80;39.50;;;;;;5070198;28;20179;-68
2022/09/07 08:05:34;;;;;;;1.30;1.20;;;26.00;38.80;;;;;;5072118;28;20425;-68
2022/09/07 08:08:00;;;;;;;1.30;1.20;;;26.20;39.30;;;;;;5070564;28;20172;-69
2022/09/07 08:10:27;;;;;;;1.30;1.10;;;25.50;40.70;;;;;;5070907;28;20523;-68
2022/09/07 08:12:53;;;;;;;1.30;1.10;;;25.90;40.60;;;;;;5069149;28;20828;-68
2022/09/07 08:15:19;;;;;;;1.30;1.30;;;25.50;40.50;;;;;;5064899;28;20439;-67
2022/09/07 08:17:46;;;;;;;1.30;1.20;;;25.70;40.40;;;;;;5072486;28;20181;-68
2022/09/07 08:20:13;;;;;;;1.30;1.10;;;25.90;39.50;;;;;;5070864;28;20187;-68
2022/09/07 08:22:38;;;;;;;1.30;1.10;;;26.20;38.30;;;;;;5070087;28;20508;-68
2022/09/07 08:25:05;;;;;;;1.30;1.30;;;26.40;38.10;;;;;;5070093;28;20841;-68
2022/09/07 08:27:31;;;;;;;1.30;1.10;;;26.20;38.90;;;;;;5069315;28;20250;-68
2022/09/07 08:29:57;;;;;;;1.30;1.10;;;25.70;40.00;;;;;;5062367;28;20748;-68
2022/09/07 08:32:23;;;;;;;1.40;1.20;;;25.70;39.90;;;;;;5063977;28;20468;-68
2022/09/07 08:34:48;;;;;;;1.30;1.20;;;25.90;39.90;;;;;;5062972;28;20254;-68
2022/09/07 08:37:14;;;;;;;1.30;1.13;;;25.80;39.50;;;;;;5064426;28;20180;-68
2022/09/07 08:39:41;;;;;;;1.30;1.10;;;25.90;40.80;;;;;;5060752;28;20206;-68
2022/09/07 08:42:09;;;;;;;1.30;1.20;;;26.30;38.40;;;;;;5063370;28;20215;-68
2022/09/07 08:44:53;;;;;;;1.30;1.20;;;26.70;36.80;;;;;;5065153;28;20444;-67
2022/09/07 08:47:36;;;;;;;1.30;1.20;;;26.90;36.00;;;;;;5067389;28;20420;-68
2022/09/07 08:50:20;;;;;;;1.30;1.13;;;26.50;38.00;;;;;;5069417;28;20423;-67
2022/09/07 08:52:47;;;;;;;1.30;1.23;;;26.70;36.60;;;;;;5061332;28;20463;-68
2022/09/07 08:55:34;;;;;;;1.30;1.20;;;26.70;37.20;;;;;;5068861;28;20425;-69
2022/09/07 08:58:23;;;;;;;1.30;1.10;;;26.40;38.20;;;;;;5065408;28;20457;-68
2022/09/07 09:00:49;;;;;;;1.30;1.10;;;26.50;38.50;;;;;;5065894;28;20460;-68
2022/09/07 09:03:25;;;;;;;1.30;1.10;;;26.50;37.60;;;;;;5065902;28;20437;-68
2022/09/07 09:05:56;;;;;;;1.30;1.10;;;26.10;38.00;;;;;;5065013;28;20191;-68
2022/09/07 09:08:53;;;;;;;1.30;1.20;;;25.80;38.60;;;;;;5066664;28;20436;-68
2022/09/07 09:12:01;;;;;;;1.30;1.13;;;26.30;37.20;;;;;;5056484;28;20445;-68
2022/09/07 09:14:46;;;;;;;1.30;1.20;;;26.30;36.50;;;;;;5057343;28;21023;-68
2022/09/07 09:17:37;;;;;;;1.30;1.20;;;26.50;35.70;;;;;;5065950;28;20433;-68
2022/09/07 09:20:23;;;;;;;1.30;1.20;;;26.30;35.50;;;;;;5068580;28;20432;-68
2022/09/07 09:22:51;;;;;;;1.30;1.20;;;26.70;35.40;;;;;;5061423;28;20447;-68
2022/09/07 09:25:25;;;;;;;1.30;1.17;;;26.20;35.00;;;;;;5056562;28;20955;-68
2022/09/07 09:27:51;;;;;;;1.30;1.10;;;26.10;34.90;;;;;;5070612;28;20463;-68
2022/09/07 09:30:22;;;;;;;1.30;1.10;;;26.00;36.40;;;;;;5059865;28;20817;-68
2022/09/07 09:32:51;;;;;;;1.30;1.20;;;26.50;35.60;;;;;;5059793;28;20582;-68
2022/09/07 09:35:27;;;;;;;1.30;1.13;;;26.80;34.00;;;;;;5059586;28;20569;-68
2022/09/07 09:37:53;;;;;;;1.30;1.30;;;26.10;35.00;;;;;;5052211;28;20416;-67
2022/09/07 09:40:25;;;;;;;1.30;1.13;;;26.30;34.70;;;;;;5063930;28;20418;-67
2022/09/07 09:43:18;;;;;;;1.30;1.10;;;26.30;35.10;;;;;;5070258;28;20226;-67
2022/09/07 09:45:49;;;;;;;1.30;1.10;;;26.80;34.40;;;;;;5066700;28;20808;-68
2022/09/07 09:48:41;;;;;;;1.30;1.20;;;27.40;33.60;;;;;;5061373;28;20414;-67
2022/09/07 09:51:07;;;;;;;1.30;1.20;;;27.20;32.60;;;;;;5058363;28;20861;-67
2022/09/07 09:53:38;;;;;;;1.30;1.00;;;27.50;32.80;;;;;;5056398;28;20447;-68
2022/09/07 09:56:06;;;;;;;1.30;1.10;;;27.90;31.30;;;;;;5062252;28;20479;-68
2022/09/07 09:58:37;;;;;;;1.30;1.20;;;27.40;32.20;;;;;;5071088;28;20924;-67
2022/09/07 10:01:45;;;;;;;1.30;1.10;;;27.20;32.90;;;;;;5061518;28;20476;-68
2022/09/07 10:04:22;;;;;;;1.30;1.17;;;27.40;32.20;;;;;;5058727;28;20456;-67
2022/09/07 10:07:08;;;;;;;1.30;1.10;;;27.90;31.30;;;;;;5066074;28;20428;-68
2022/09/07 10:09:37;;;;;;;1.30;1.10;;;28.60;31.90;;;;;;5058633;28;20951;-68
2022/09/07 10:12:05;;;;;;;1.30;1.10;;;28.40;30.10;;;;;;5053688;28;20449;-68
2022/09/07 10:14:44;;;;;;;1.30;1.10;;;27.60;31.90;;;;;;5051097;28;20466;-68
2022/09/07 10:17:20;;;;;;;1.30;1.10;;;27.70;31.20;;;;;;5051974;28;20983;-68
2022/09/07 10:19:45;;;;;;;1.30;1.10;;;27.30;32.40;;;;;;5065263;28;20954;-68
2022/09/07 10:22:20;;;;;;;1.30;1.10;;;27.10;32.20;;;;;;5067882;28;20492;-68
2022/09/07 10:24:46;;;;;;;1.30;1.10;;;27.40;31.00;;;;;;5056455;28;20643;-68
2022/09/07 10:27:39;;;;;;;1.30;1.10;;;27.70;31.20;;;;;;5067142;28;20425;-67
2022/09/07 10:30:15;;;;;;;1.30;1.13;;;27.50;31.10;;;;;;5063204;28;20625;-68
2022/09/07 10:32:56;;;;;;;1.30;1.10;;;27.70;30.90;;;;;;5066089;28;20541;-68
2022/09/07 10:35:32;;;;;;;1.30;1.10;;;27.30;31.00;;;;;;5063914;28;20424;-68
2022/09/07 10:38:15;;;;;;;1.27;1.10;;;27.50;31.00;;;;;;5054453;28;20471;-67
2022/09/07 10:41:06;;;;;;;1.30;1.10;;;27.90;29.70;;;;;;5064776;28;20452;-67
2022/09/07 10:43:50;;;;;;;1.30;1.10;;;27.60;29.00;;;;;;5057039;28;20417;-68
2022/09/07 10:46:16;;;;;;;1.30;1.00;;;27.60;28.30;;;;;;5054325;28;20445;-67
2022/09/07 10:49:14;;;;;;;1.30;1.10;;;27.50;28.80;;;;;;5059439;28;20797;-67
2022/09/07 10:51:58;;;;;;;1.30;1.20;;;28.30;27.90;;;;;;5033361;28;20569;-67
2022/09/07 10:54:42;;;;;;;1.30;1.10;;;29.10;26.30;;;;;;5057943;28;20441;-67
2022/09/07 10:57:45;;;;;;;1.30;1.10;;;30.00;24.80;;;;;;5062183;28;20424;-68
2022/09/07 11:00:13;;;;;;;1.30;1.10;;;31.20;23.40;;;;;;5060461;28;20449;-68
2022/09/07 11:03:32;;;;;;;1.30;1.10;;;31.70;21.50;;;;;;5056866;28;20488;-67
2022/09/07 11:06:21;;;;;;;1.30;0.93;;;32.30;21.00;;;;;;5006401;28;20423;-67
2022/09/07 11:09:32;;;;;;;1.30;0.90;;;32.30;18.50;;;;;;5010358;28;20516;-68
2022/09/07 11:12:23;;;;;;;1.30;1.00;;;33.10;18.10;;;;;;4933025;29;20451;-68
2022/09/07 11:14:50;;;;;;;1.30;1.00;;;33.70;17.90;;;;;;4934350;29;20431;-68
2022/09/07 11:17:20;;;;;;;1.30;1.00;;;33.60;17.30;;;;;;4931610;29;20526;-67
2022/09/07 11:19:51;;;;;;;1.27;1.00;;;33.90;16.40;;;;;;4924711;29;20874;-67
2022/09/07 11:22:56;;;;;;;1.20;0.90;;;32.20;17.80;;;;;;4921230;29;20518;-68
2022/09/07 11:25:38;;;;;;;1.30;1.00;;;32.00;18.80;;;;;;4874508;29;20441;-67
2022/09/07 11:28:19;;;;;;;1.20;1.00;;;32.70;18.10;;;;;;4876332;29;20470;-68
2022/09/07 11:30:49;;;;;;;1.20;0.90;;;33.40;16.80;;;;;;4876683;29;20859;-67
2022/09/07 11:33:25;;;;;;;1.20;0.90;;;33.00;16.10;;;;;;4875457;29;20493;-68
2022/09/07 11:36:08;;;;;;;1.20;1.00;;;32.10;17.50;;;;;;4875256;29;20544;-68
2022/09/07 11:38:40;;;;;;;1.20;1.00;;;31.70;18.40;;;;;;4909132;29;21082;-68
2022/09/07 11:41:24;;;;;;;1.20;1.00;;;31.90;17.20;;;;;;4911209;29;20474;-68
2022/09/07 11:44:17;;;;;;;1.20;1.03;;;31.60;18.40;;;;;;4914612;29;20440;-69
2022/09/07 11:46:47;;;;;;;1.20;0.93;;;33.40;15.80;;;;;;4924545;28;20478;-68
2022/09/07 11:49:24;;;;;;;1.20;0.90;;;33.60;15.70;;;;;;4999459;28;20440;-68
2022/09/07 11:51:55;;;;;;;1.20;1.00;;;34.80;14.70;;;;;;5004982;28;20459;-68
2022/09/07 11:54:41;;;;;;;1.20;0.90;;;34.70;14.50;;;;;;5002764;28;20451;-68
2022/09/07 11:57:33;;;;;;;1.20;1.00;;;35.20;12.60;;;;;;5058164;28;21211;-68
2022/09/07 12:00:10;;;;;;;1.20;0.90;;;34.90;13.20;;;;;;5069538;28;20932;-68
2022/09/07 12:03:03;;;;;;;1.20;0.90;;;34.60;12.60;;;;;;5070627;28;20463;-68
2022/09/07 12:05:58;;;;;;;1.20;0.90;;;34.80;13.00;;;;;;5068543;28;20792;-67
2022/09/07 12:08:57;;;;;;;1.20;0.90;;;35.90;13.10;;;;;;5064905;28;20475;-68
2022/09/07 12:11:23;;;;;;;1.20;0.90;;;36.10;11.10;;;;;;5064156;28;20456;-67
2022/09/07 12:14:09;;;;;;;1.20;0.90;;;34.80;13.20;;;;;;5067736;28;20425;-68
2022/09/07 12:16:48;;;;;;;1.20;0.90;;;35.30;12.50;;;;;;5065812;28;20179;-68
2022/09/07 12:19:17;;;;;;;1.20;0.93;;;34.10;12.50;;;;;;5067625;28;20422;-67
2022/09/07 12:21:51;;;;;;;1.20;0.90;;;32.90;13.00;;;;;;5062609;28;20473;-68
2022/09/07 12:24:50;;;;;;;1.20;0.90;;;34.40;14.80;;;;;;5065561;28;20507;-67
2022/09/07 12:27:18;;;;;;;1.20;1.00;;;33.70;12.80;;;;;;5054613;28;20475;-68
2022/09/07 12:29:45;;;;;;;1.20;0.90;;;33.20;12.00;;;;;;5067130;28;20425;-68
2022/09/07 12:32:11;;;;;;;1.20;0.90;;;32.60;13.60;;;;;;5066630;28;20852;-68
2022/09/07 12:34:39;;;;;;;1.20;0.90;;;33.10;14.20;;;;;;5069710;28;20486;-68
2022/09/07 12:37:04;;;;;;;1.20;0.90;;;32.80;13.70;;;;;;5067835;28;20207;-68
2022/09/07 12:39:31;;;;;;;1.20;0.90;;;33.70;14.20;;;;;;5068793;28;21113;-68
2022/09/07 12:42:09;;;;;;;1.20;0.90;;;34.90;12.80;;;;;;5068479;28;20217;-67
2022/09/07 12:44:36;;;;;;;1.20;0.90;;;35.40;13.70;;;;;;5066095;28;20520;-68
2022/09/07 12:47:12;;;;;;;1.20;0.90;;;34.80;12.30;;;;;;5068449;28;20433;-68
2022/09/07 12:49:46;;;;;;;1.20;0.90;;;34.20;14.30;;;;;;5068186;28;20954;-68
2022/09/07 12:52:34;;;;;;;1.20;0.90;;;35.20;12.80;;;;;;5065290;28;20510;-68
2022/09/07 12:55:10;;;;;;;1.20;0.90;;;34.70;14.00;;;;;;5064299;28;20433;-68
2022/09/07 12:58:00;;;;;;;1.20;0.90;;;34.50;12.80;;;;;;5063257;28;20432;-67
2022/09/07 13:00:57;;;;;;;1.20;0.90;;;35.30;13.30;;;;;;5066972;28;20567;-68
2022/09/07 13:03:57;;;;;;;1.30;0.90;;;33.80;13.10;;;;;;5066278;28;20432;-67
2022/09/07 13:06:46;;;;;;;1.30;1.00;;;33.10;14.50;;;;;;5068981;28;20441;-67
2022/09/07 13:09:28;;;;;;;1.20;0.90;;;34.50;12.10;;;;;;5067182;28;20437;-68
2022/09/07 13:11:54;;;;;;;1.20;0.90;;;35.60;11.60;;;;;;5070285;28;20457;-68
2022/09/07 13:14:25;;;;;;;1.20;1.00;;;36.20;13.30;;;;;;5070933;28;20642;-68
2022/09/07 13:17:29;;;;;;;1.20;0.90;;;37.00;10.80;;;;;;5069262;28;20444;-67
2022/09/07 13:19:54;;;;;;;1.20;0.90;;;36.40;11.30;;;;;;5070614;28;20424;-68
2022/09/07 13:22:29;;;;;;;1.20;0.90;;;36.00;12.50;;;;;;5064615;28;20476;-68